Time,TemperatureF,DewpointF,PressureIn,WindDirection,WindDirectionDegrees,WindSpeedMPH,WindSpeedGustMPH,Humidity,HourlyPrecipIn,Conditions,Clouds,dailyrainin,SoftwareType,DateUTC
2013-01-20 00:00:00,47.3,36.5,30.18,SW,219,0.0,0.0,66,0.00,,,0.00,Wunderground v.1.15,2013-01-20 06:00:00,
2013-01-20 00:10:00,46.9,36.5,30.18,SW,219,0.0,0.0,67,0.00,,,0.00,Wunderground v.1.15,2013-01-20 06:10:00,
2013-01-20 00:20:00,46.2,36.2,30.19,SW,219,0.0,0.0,68,0.00,,,0.00,Wunderground v.1.15,2013-01-20 06:20:00,
2013-01-20 00:30:00,45.4,36.2,30.18,SW,219,0.0,0.0,70,0.00,,,0.00,Wunderground v.1.15,2013-01-20 06:30:00,
2013-01-20 00:40:00,45.2,36.4,30.18,SW,219,0.0,0.0,71,0.00,,,0.00,Wunderground v.1.15,2013-01-20 06:40:00,
2013-01-20 00:50:00,45.0,36.5,30.19,SW,219,0.0,0.0,72,0.00,,,0.00,Wunderground v.1.15,2013-01-20 06:50:00,
2013-01-20 01:00:00,44.0,34.5,30.18,SW,219,0.0,0.0,69,0.00,,,0.00,Wunderground v.1.15,2013-01-20 07:00:00,
2013-01-20 01:10:00,42.2,33.5,30.18,SW,219,0.0,0.0,71,0.00,,,0.00,Wunderground v.1.15,2013-01-20 07:10:00,
2013-01-20 01:20:00,40.9,34.9,30.18,SW,219,0.0,0.0,79,0.00,,,0.00,Wunderground v.1.15,2013-01-20 07:20:00,
2013-01-20 01:30:00,40.9,34.6,30.18,SW,219,0.0,0.0,78,0.00,,,0.00,Wunderground v.1.15,2013-01-20 07:30:00,
2013-01-20 01:40:00,40.7,35.0,30.18,SW,219,0.0,0.0,80,0.00,,,0.00,Wunderground v.1.15,2013-01-20 07:40:00,
2013-01-20 01:50:00,41.0,35.3,30.18,SW,219,0.0,0.0,80,0.00,,,0.00,Wunderground v.1.15,2013-01-20 07:50:00,
2013-01-20 02:00:00,40.9,34.9,30.18,SW,219,0.0,0.0,79,0.00,,,0.00,Wunderground v.1.15,2013-01-20 08:00:00,
2013-01-20 02:10:00,40.7,34.7,30.18,SW,219,0.0,0.0,79,0.00,,,0.00,Wunderground v.1.15,2013-01-20 08:10:00,
2013-01-20 02:20:00,40.7,35.0,30.18,SW,219,0.0,0.0,80,0.00,,,0.00,Wunderground v.1.15,2013-01-20 08:20:00,
2013-01-20 02:30:00,41.0,35.0,30.18,SW,219,0.0,0.0,79,0.00,,,0.00,Wunderground v.1.15,2013-01-20 08:30:00,
2013-01-20 02:40:00,41.0,35.0,30.18,SW,219,0.0,0.0,79,0.00,,,0.00,Wunderground v.1.15,2013-01-20 08:40:00,
2013-01-20 02:50:00,40.7,34.7,30.18,SW,219,0.0,0.0,79,0.00,,,0.00,Wunderground v.1.15,2013-01-20 08:50:00,
2013-01-20 03:00:00,39.8,33.2,30.18,SW,219,0.0,0.0,77,0.00,,,0.00,Wunderground v.1.15,2013-01-20 09:00:00,
2013-01-20 03:10:00,38.9,33.9,30.18,SW,219,0.0,0.0,82,0.00,,,0.00,Wunderground v.1.15,2013-01-20 09:10:00,
2013-01-20 03:20:00,38.5,33.5,30.17,SW,219,0.0,0.0,82,0.00,,,0.00,Wunderground v.1.15,2013-01-20 09:20:00,
2013-01-20 03:30:00,37.8,33.1,30.17,SW,219,0.0,0.0,83,0.00,,,0.00,Wunderground v.1.15,2013-01-20 09:30:00,
2013-01-20 06:20:00,33.2,29.8,30.18,SW,219,0.0,0.0,87,0.00,,,0.00,Wunderground v.1.15,2013-01-20 12:20:00,
2013-01-20 06:30:00,33.0,30.4,30.17,SW,219,0.0,0.0,90,0.00,,,0.00,Wunderground v.1.15,2013-01-20 12:30:00,
2013-01-20 06:40:00,32.9,30.0,30.17,SW,219,0.0,0.0,89,0.00,,,0.00,Wunderground v.1.15,2013-01-20 12:40:00,
2013-01-20 06:50:00,32.8,30.2,30.17,SW,219,0.0,0.0,90,0.00,,,0.00,Wunderground v.1.15,2013-01-20 12:50:00,
2013-01-20 07:00:00,32.8,30.2,30.17,SW,219,0.0,0.0,90,0.00,,,0.00,Wunderground v.1.15,2013-01-20 13:00:00,
2013-01-20 07:10:00,33.0,30.4,30.17,SW,219,0.0,0.0,90,0.00,,,0.00,Wunderground v.1.15,2013-01-20 13:10:00,
2013-01-20 07:20:00,32.9,30.3,30.18,SW,219,0.0,0.0,90,0.00,,,0.00,Wunderground v.1.15,2013-01-20 13:20:00,
2013-01-20 07:30:00,32.8,29.9,30.18,SW,219,0.0,0.0,89,0.00,,,0.00,Wunderground v.1.15,2013-01-20 13:30:00,
2013-01-20 07:40:00,32.2,28.8,30.18,SW,219,0.0,0.0,87,0.00,,,0.00,Wunderground v.1.15,2013-01-20 13:40:00,
2013-01-20 07:50:00,31.5,28.4,30.19,SW,219,0.0,0.0,88,0.00,,,0.00,Wunderground v.1.15,2013-01-20 13:50:00,
2013-01-20 08:00:00,31.4,28.5,30.19,SW,219,0.0,0.0,89,0.00,,,0.00,Wunderground v.1.15,2013-01-20 14:00:00,
2013-01-20 08:10:00,32.2,29.9,30.19,SW,219,0.0,0.0,91,0.00,,,0.00,Wunderground v.1.15,2013-01-20 14:10:00,
2013-01-20 08:20:00,33.4,30.8,30.20,SW,219,0.0,0.0,90,0.00,,,0.00,Wunderground v.1.15,2013-01-20 14:20:00,
2013-01-20 08:30:00,34.6,31.7,30.20,SW,219,0.0,0.0,89,0.00,,,0.00,Wunderground v.1.15,2013-01-20 14:30:00,
2013-01-20 08:40:00,35.7,32.8,30.21,SW,219,0.0,0.0,89,0.00,,,0.00,Wunderground v.1.15,2013-01-20 14:40:00,
2013-01-20 08:50:00,36.9,34.0,30.21,SW,219,0.0,0.0,89,0.00,,,0.00,Wunderground v.1.15,2013-01-20 14:50:00,
2013-01-20 09:00:00,38.7,34.3,30.21,SW,219,0.0,0.0,84,0.00,,,0.00,Wunderground v.1.15,2013-01-20 15:00:00,
2013-01-20 09:10:00,40.2,33.9,30.21,SW,236,0.0,0.0,78,0.00,,,0.00,Wunderground v.1.15,2013-01-20 15:10:00,
2013-01-20 09:20:00,41.7,34.7,30.21,WSW,247,0.0,0.0,76,0.00,,,0.00,Wunderground v.1.15,2013-01-20 15:20:00,
2013-01-20 09:30:00,42.7,34.6,30.22,WSW,249,0.0,0.0,73,0.00,,,0.00,Wunderground v.1.15,2013-01-20 15:30:00,
2013-01-20 09:40:00,43.9,35.1,30.22,WSW,249,0.0,0.0,71,0.00,,,0.00,Wunderground v.1.15,2013-01-20 15:40:00,
2013-01-20 09:50:00,45.0,35.1,30.23,WSW,246,0.0,0.0,68,0.00,,,0.00,Wunderground v.1.15,2013-01-20 15:50:00,
2013-01-20 10:00:00,46.0,35.7,30.23,WSW,240,0.0,0.0,67,0.00,,,0.00,Wunderground v.1.15,2013-01-20 16:00:00,
2013-01-20 10:10:00,47.2,36.4,30.23,WSW,242,0.0,0.0,66,0.00,,,0.00,Wunderground v.1.15,2013-01-20 16:10:00,
2013-01-20 10:20:00,48.3,36.3,30.23,WSW,238,0.0,0.0,63,0.00,,,0.00,Wunderground v.1.15,2013-01-20 16:20:00,
2013-01-20 10:30:00,49.4,36.9,30.23,WSW,240,0.0,0.0,62,0.00,,,0.00,Wunderground v.1.15,2013-01-20 16:30:00,
2013-01-20 10:40:00,50.4,36.6,30.23,WSW,238,0.0,0.0,59,0.00,,,0.00,Wunderground v.1.15,2013-01-20 16:40:00,
2013-01-20 10:50:00,51.3,37.0,30.23,WSW,251,0.0,0.0,58,0.00,,,0.00,Wunderground v.1.15,2013-01-20 16:50:00,
2013-01-20 11:00:00,52.1,37.3,30.22,WSW,251,1.0,1.0,57,0.00,,,0.00,Wunderground v.1.15,2013-01-20 17:00:00,
2013-01-20 11:10:00,52.9,37.2,30.22,West,275,2.0,2.0,55,0.00,,,0.00,Wunderground v.1.15,2013-01-20 17:10:00,
2013-01-20 11:20:00,54.0,37.7,30.22,West,275,1.0,5.0,54,0.00,,,0.00,Wunderground v.1.15,2013-01-20 17:20:00,
2013-01-20 11:30:00,55.1,37.3,30.22,WSW,247,2.0,2.0,51,0.00,,,0.00,Wunderground v.1.15,2013-01-20 17:30:00,
2013-01-20 11:40:00,56.1,37.2,30.21,WSW,240,2.0,2.0,49,0.00,,,0.00,Wunderground v.1.15,2013-01-20 17:40:00,
2013-01-20 11:50:00,56.9,37.4,30.20,SSW,213,3.0,3.0,48,0.00,,,0.00,Wunderground v.1.15,2013-01-20 17:50:00,
2013-01-20 12:00:00,57.7,38.1,30.19,WSW,246,2.0,2.0,48,0.00,,,0.00,Wunderground v.1.15,2013-01-20 18:00:00,
2013-01-20 12:10:00,58.5,37.2,30.19,SW,232,2.0,2.0,45,0.00,,,0.00,Wunderground v.1.15,2013-01-20 18:10:00,
2013-01-20 12:20:00,59.5,38.7,30.18,WSW,244,1.0,1.0,46,0.00,,,0.00,Wunderground v.1.15,2013-01-20 18:20:00,
2013-01-20 12:30:00,60.4,38.4,30.17,WSW,253,2.0,2.0,44,0.00,,,0.00,Wunderground v.1.15,2013-01-20 18:30:00,
2013-01-20 12:40:00,60.9,38.2,30.16,West,273,2.0,2.0,43,0.00,,,0.00,Wunderground v.1.15,2013-01-20 18:40:00,
2013-01-20 12:50:00,61.9,38.5,30.15,SSW,211,2.0,4.0,42,0.00,,,0.00,Wunderground v.1.15,2013-01-20 18:50:00,
2013-01-20 13:00:00,62.9,38.2,30.14,SW,224,2.0,2.0,40,0.00,,,0.00,Wunderground v.1.15,2013-01-20 19:00:00,
2013-01-20 13:10:00,63.7,37.6,30.13,SSW,213,3.0,3.0,38,0.00,,,0.00,Wunderground v.1.15,2013-01-20 19:10:00,
2013-01-20 13:20:00,64.0,37.2,30.12,WSW,242,3.0,6.0,37,0.00,,,0.00,Wunderground v.1.15,2013-01-20 19:20:00,
2013-01-20 13:30:00,64.5,36.9,30.11,WSW,252,4.0,4.0,36,0.00,,,0.00,Wunderground v.1.15,2013-01-20 19:30:00,
2013-01-20 13:40:00,65.0,36.7,30.11,NW,315,2.0,2.0,35,0.00,,,0.00,Wunderground v.1.15,2013-01-20 19:40:00,
2013-01-20 13:50:00,65.8,36.6,30.10,West,279,2.0,5.0,34,0.00,,,0.00,Wunderground v.1.15,2013-01-20 19:50:00,
2013-01-20 14:00:00,66.3,36.3,30.10,SSW,209,3.0,4.0,33,0.00,,,0.00,Wunderground v.1.15,2013-01-20 20:00:00,
2013-01-20 14:10:00,66.7,35.1,30.09,WSW,245,2.0,2.0,31,0.00,,,0.00,Wunderground v.1.15,2013-01-20 20:10:00,
2013-01-20 14:20:00,67.2,35.5,30.09,WSW,248,3.0,3.0,31,0.00,,,0.00,Wunderground v.1.15,2013-01-20 20:20:00,
2013-01-20 14:30:00,67.5,36.6,30.09,WNW,290,3.0,3.0,32,0.00,,,0.00,Wunderground v.1.15,2013-01-20 20:30:00,
2013-01-20 14:40:00,67.8,34.4,30.09,West,274,2.0,4.0,29,0.00,,,0.00,Wunderground v.1.15,2013-01-20 20:40:00,
2013-01-20 14:50:00,68.0,34.5,30.08,WSW,251,2.0,2.0,29,0.00,,,0.00,Wunderground v.1.15,2013-01-20 20:50:00,
2013-01-20 15:00:00,68.4,34.9,30.08,West,261,1.0,3.0,29,0.00,,,0.00,Wunderground v.1.15,2013-01-20 21:00:00,
2013-01-20 15:10:00,68.8,33.4,30.08,West,261,2.0,2.0,27,0.00,,,0.00,Wunderground v.1.15,2013-01-20 21:10:00,
2013-01-20 15:20:00,69.1,31.8,30.07,West,259,2.0,2.0,25,0.00,,,0.00,Wunderground v.1.15,2013-01-20 21:20:00,
2013-01-20 15:30:00,69.1,32.7,30.07,West,262,2.0,3.0,26,0.00,,,0.00,Wunderground v.1.15,2013-01-20 21:30:00,
2013-01-20 15:40:00,69.2,31.9,30.07,West,272,2.0,4.0,25,0.00,,,0.00,Wunderground v.1.15,2013-01-20 21:40:00,
2013-01-20 15:50:00,69.5,33.1,30.07,West,274,2.0,6.0,26,0.00,,,0.00,Wunderground v.1.15,2013-01-20 21:50:00,
2013-01-20 16:00:00,69.3,31.9,30.07,WNW,287,2.0,4.0,25,0.00,,,0.00,Wunderground v.1.15,2013-01-20 22:00:00,
2013-01-20 16:10:00,69.2,31.9,30.07,WNW,289,2.0,2.0,25,0.00,,,0.00,Wunderground v.1.15,2013-01-20 22:10:00,
2013-01-20 16:20:00,69.2,31.9,30.06,West,262,2.0,2.0,25,0.00,,,0.00,Wunderground v.1.15,2013-01-20 22:20:00,
2013-01-20 16:30:00,69.1,32.7,30.06,WNW,292,2.0,2.0,26,0.00,,,0.00,Wunderground v.1.15,2013-01-20 22:30:00,
2013-01-20 16:40:00,69.0,33.6,30.06,WNW,288,1.0,1.0,27,0.00,,,0.00,Wunderground v.1.15,2013-01-20 22:40:00,
2013-01-20 16:50:00,69.0,33.6,30.06,West,268,1.0,1.0,27,0.00,,,0.00,Wunderground v.1.15,2013-01-20 22:50:00,
2013-01-20 17:00:00,69.1,34.6,30.06,West,272,1.0,1.0,28,0.00,,,0.00,Wunderground v.1.15,2013-01-20 23:00:00,
2013-01-20 17:10:00,68.8,32.5,30.06,West,275,1.0,1.0,26,0.00,,,0.00,Wunderground v.1.15,2013-01-20 23:10:00,
2013-01-20 17:20:00,68.5,33.2,30.06,West,275,0.0,1.0,27,0.00,,,0.00,Wunderground v.1.15,2013-01-20 23:20:00,
2013-01-20 17:30:00,67.7,33.4,30.06,West,275,0.0,0.0,28,0.00,,,0.00,Wunderground v.1.15,2013-01-20 23:30:00,
2013-01-20 17:40:00,66.6,33.3,30.06,West,275,0.0,0.0,29,0.00,,,0.00,Wunderground v.1.15,2013-01-20 23:40:00,
2013-01-20 17:50:00,65.1,32.9,30.06,West,275,0.0,0.0,30,0.00,,,0.00,Wunderground v.1.15,2013-01-20 23:50:00,
2013-01-20 18:00:00,63.5,32.3,30.06,West,275,0.0,0.0,31,0.00,,,0.00,Wunderground v.1.15,2013-01-21 00:00:00,
2013-01-20 18:10:00,62.3,32.8,30.06,West,275,0.0,0.0,33,0.00,,,0.00,Wunderground v.1.15,2013-01-21 00:10:00,
2013-01-20 18:20:00,61.5,34.3,30.06,West,275,0.0,0.0,36,0.00,,,0.00,Wunderground v.1.15,2013-01-21 00:20:00,
2013-01-20 18:30:00,60.2,31.7,30.06,West,275,0.0,0.0,34,0.00,,,0.00,Wunderground v.1.15,2013-01-21 00:30:00,
2013-01-20 18:40:00,59.7,32.0,30.06,West,275,0.0,0.0,35,0.00,,,0.00,Wunderground v.1.15,2013-01-21 00:40:00,
2013-01-20 18:50:00,59.3,33.0,30.07,West,275,0.0,1.0,37,0.00,,,0.00,Wunderground v.1.15,2013-01-21 00:50:00,
2013-01-20 19:00:00,58.8,33.2,30.08,West,275,1.0,1.0,38,0.00,,,0.00,Wunderground v.1.15,2013-01-21 01:00:00,
2013-01-20 19:10:00,58.1,32.6,30.08,West,277,1.0,1.0,38,0.00,,,0.00,Wunderground v.1.15,2013-01-21 01:10:00,
2013-01-20 19:20:00,57.5,32.7,30.08,West,277,1.0,1.0,39,0.00,,,0.00,Wunderground v.1.15,2013-01-21 01:20:00,
2013-01-20 19:30:00,56.9,32.8,30.08,West,279,1.0,1.0,40,0.00,,,0.00,Wunderground v.1.15,2013-01-21 01:30:00,
2013-01-20 19:40:00,56.4,33.0,30.08,West,281,1.0,1.0,41,0.00,,,0.00,Wunderground v.1.15,2013-01-21 01:40:00,
2013-01-20 19:50:00,55.7,32.3,30.09,West,281,0.0,0.0,41,0.00,,,0.00,Wunderground v.1.15,2013-01-21 01:50:00,
2013-01-20 20:00:00,54.7,32.6,30.09,West,281,0.0,0.0,43,0.00,,,0.00,Wunderground v.1.15,2013-01-21 02:00:00,
2013-01-20 20:10:00,54.0,32.6,30.08,West,281,0.0,0.0,44,0.00,,,0.00,Wunderground v.1.15,2013-01-21 02:10:00,
2013-01-20 20:20:00,54.0,32.6,30.09,West,281,0.0,0.0,44,0.00,,,0.00,Wunderground v.1.15,2013-01-21 02:20:00,
2013-01-20 20:30:00,53.4,33.1,30.09,West,281,0.0,0.0,46,0.00,,,0.00,Wunderground v.1.15,2013-01-21 02:30:00,
2013-01-20 20:40:00,52.4,33.3,30.09,West,281,0.0,0.0,48,0.00,,,0.00,Wunderground v.1.15,2013-01-21 02:40:00,
2013-01-20 20:50:00,51.3,32.8,30.09,West,281,0.0,0.0,49,0.00,,,0.00,Wunderground v.1.15,2013-01-21 02:50:00,
2013-01-20 21:00:00,50.4,32.9,30.10,West,281,0.0,0.0,51,0.00,,,0.00,Wunderground v.1.15,2013-01-21 03:00:00,
2013-01-20 21:10:00,50.1,34.1,30.10,West,281,0.0,0.0,54,0.00,,,0.00,Wunderground v.1.15,2013-01-21 03:10:00,
2013-01-20 21:20:00,49.0,32.1,30.10,West,281,0.0,0.0,52,0.00,,,0.00,Wunderground v.1.15,2013-01-21 03:20:00,
2013-01-20 21:30:00,49.0,33.1,30.10,West,281,0.0,0.0,54,0.00,,,0.00,Wunderground v.1.15,2013-01-21 03:30:00,
2013-01-20 21:40:00,49.0,34.0,30.10,West,281,0.0,0.0,56,0.00,,,0.00,Wunderground v.1.15,2013-01-21 03:40:00,
2013-01-20 21:50:00,48.2,34.5,30.10,West,281,0.0,0.0,59,0.00,,,0.00,Wunderground v.1.15,2013-01-21 03:50:00,
2013-01-20 22:00:00,46.3,35.2,30.11,West,281,0.0,0.0,65,0.00,,,0.00,Wunderground v.1.15,2013-01-21 04:00:00,
2013-01-20 22:10:00,44.9,33.5,30.11,West,281,0.0,0.0,64,0.00,,,0.00,Wunderground v.1.15,2013-01-21 04:10:00,
2013-01-20 22:20:00,45.1,32.4,30.11,West,281,0.0,0.0,61,0.00,,,0.00,Wunderground v.1.15,2013-01-21 04:20:00,
2013-01-20 22:30:00,45.5,32.8,30.11,West,281,0.0,0.0,61,0.00,,,0.00,Wunderground v.1.15,2013-01-21 04:30:00,
2013-01-20 22:40:00,44.9,33.5,30.11,West,281,0.0,0.0,64,0.00,,,0.00,Wunderground v.1.15,2013-01-21 04:40:00,
2013-01-20 22:50:00,42.9,33.1,30.11,West,280,0.0,0.0,68,0.00,,,0.00,Wunderground v.1.15,2013-01-21 04:50:00,
2013-01-20 23:10:00,43.5,32.9,30.12,West,279,0.0,0.0,66,0.00,,,0.00,Wunderground v.1.15,2013-01-21 05:10:00,
2013-01-20 23:20:00,43.8,33.2,30.12,West,279,0.0,0.0,66,0.00,,,0.00,Wunderground v.1.15,2013-01-21 05:20:00,
2013-01-20 23:30:00,43.6,33.0,30.12,West,279,0.0,0.0,66,0.00,,,0.00,Wunderground v.1.15,2013-01-21 05:30:00,
2013-01-20 23:40:00,43.0,32.8,30.12,West,280,0.0,0.0,67,0.00,,,0.00,Wunderground v.1.15,2013-01-21 05:40:00,
2013-01-20 23:50:00,43.3,32.7,30.11,West,280,0.0,0.0,66,0.00,,,0.00,Wunderground v.1.15,2013-01-21 05:50:00,